sensor_id;sensor_type;location;lat;lon;timestamp;P1;durP1;ratioP1;P2;durP2;ratioP2
62457;SDS011;48509;52.122;5.250;2024-01-10T00:01:23;5.11;;;3.8;;
62457;SDS011;48509;52.122;5.250;2024-01-10T00:02:59;6.0;;;3.9;;
62457;SDS011;48509;52.122;5.250;2024-01-10T00:04:35;6.9;;;4.0;;
62457;SDS011;48509;52.122;5.250;2024-01-10T00:06:11;5.8;;;4.0;;
62457;SDS011;48509;52.122;5.250;2024-01-10T00:09:26;7.1;;;4.3;;
62457;SDS011;48509;52.122;5.250;2024-01-10T00:11:03;7.0;;;4.1;;
62457;SDS011;48509;52.122;5.250;2024-01-10T00:12:39;6.0;;;4.0;;
62457;SDS011;48509;52.122;5.250;2024-01-10T00:15:51;6.8;;;4.5;;
62457;SDS011;48509;52.122;5.250;2024-01-10T00:17:27;6.8;;;4.5;;
62457;SDS011;48509;52.122;5.250;2024-01-10T00:19:03;4.7;;;3.7;;
62457;SDS011;48509;52.122;5.250;2024-01-10T00:22:19;5.0;;;4.0;;
62457;SDS011;48509;52.122;5.250;2024-01-10T00:23:55;7.3;;;4.5;;
62457;SDS011;48509;52.122;5.250;2024-01-10T00:25:32;7.8;;;4.3;;
62457;SDS011;48509;52.122;5.250;2024-01-10T00:27:08;4.91;;;3.8;;
62457;SDS011;48509;52.122;5.250;2024-01-10T00:30:21;6.2;;;4.0;;
62457;SDS011;48509;52.122;5.250;2024-01-10T00:31:58;6.2;;;4.2;;
62457;SDS011;48509;52.122;5.250;2024-01-10T00:33:34;6.9;;;4.3;;
62457;SDS011;48509;52.122;5.250;2024-01-10T00:36:46;7.6;;;4.2;;
62457;SDS011;48509;52.122;5.250;2024-01-10T00:38:22;5.11;;;4.2;;
62457;SDS011;48509;52.122;5.250;2024-01-10T00:39:58;6.8;;;4.1;;
62457;SDS011;48509;52.122;5.250;2024-01-10T00:43:10;5.6;;;4.0;;
62457;SDS011;48509;52.122;5.250;2024-01-10T00:44:46;5.6;;;4.0;;
62457;SDS011;48509;52.122;5.250;2024-01-10T00:46:22;4.5;;;3.9;;
62457;SDS011;48509;52.122;5.250;2024-01-10T00:47:59;5.11;;;4.0;;
62457;SDS011;48509;52.122;5.250;2024-01-10T00:51:11;6.8;;;4.2;;
62457;SDS011;48509;52.122;5.250;2024-01-10T00:52:47;6.5;;;4.3;;
62457;SDS011;48509;52.122;5.250;2024-01-10T00:54:23;6.3;;;4.1;;
62457;SDS011;48509;52.122;5.250;2024-01-10T00:57:35;8.2;;;4.3;;
62457;SDS011;48509;52.122;5.250;2024-01-10T00:59:11;4.91;;;3.7;;
62457;SDS011;48509;52.122;5.250;2024-01-10T01:00:47;4.5;;;4.0;;
62457;SDS011;48509;52.122;5.250;2024-01-10T01:04:03;8.0;;;4.3;;
62457;SDS011;48509;52.122;5.250;2024-01-10T01:05:39;6.7;;;4.41;;
62457;SDS011;48509;52.122;5.250;2024-01-10T01:07:15;8.5;;;4.8;;
62457;SDS011;48509;52.122;5.250;2024-01-10T01:08:51;5.5;;;4.41;;
62457;SDS011;48509;52.122;5.250;2024-01-10T01:12:03;5.8;;;3.9;;
62457;SDS011;48509;52.122;5.250;2024-01-10T01:13:40;6.2;;;4.41;;
62457;SDS011;48509;52.122;5.250;2024-01-10T01:15:16;7.5;;;4.3;;
62457;SDS011;48509;52.122;5.250;2024-01-10T01:18:28;6.8;;;4.61;;
62457;SDS011;48509;52.122;5.250;2024-01-10T01:20:05;4.91;;;4.41;;
62457;SDS011;48509;52.122;5.250;2024-01-10T01:21:42;6.8;;;4.5;;
62457;SDS011;48509;52.122;5.250;2024-01-10T01:24:54;5.8;;;4.2;;
62457;SDS011;48509;52.122;5.250;2024-01-10T01:26:30;10.0;;;4.8;;
62457;SDS011;48509;52.122;5.250;2024-01-10T01:28:06;7.9;;;4.7;;
62457;SDS011;48509;52.122;5.250;2024-01-10T01:31:19;8.6;;;5.2;;
62457;SDS011;48509;52.122;5.250;2024-01-10T01:32:55;5.4;;;4.61;;
62457;SDS011;48509;52.122;5.250;2024-01-10T01:34:31;5.8;;;4.5;;
62457;SDS011;48509;52.122;5.250;2024-01-10T01:36:07;11.6;;;5.0;;
62457;SDS011;48509;52.122;5.250;2024-01-10T01:39:20;5.5;;;4.1;;
62457;SDS011;48509;52.122;5.250;2024-01-10T01:40:56;7.0;;;4.41;;
62457;SDS011;48509;52.122;5.250;2024-01-10T01:42:32;6.9;;;4.91;;
62457;SDS011;48509;52.122;5.250;2024-01-10T01:45:44;6.4;;;4.8;;
62457;SDS011;48509;52.122;5.250;2024-01-10T01:47:20;8.71;;;4.3;;
62457;SDS011;48509;52.122;5.250;2024-01-10T01:48:56;6.2;;;4.5;;
62457;SDS011;48509;52.122;5.250;2024-01-10T01:52:08;5.6;;;4.41;;
62457;SDS011;48509;52.122;5.250;2024-01-10T01:53:46;7.7;;;4.8;;
62457;SDS011;48509;52.122;5.250;2024-01-10T01:55:23;5.11;;;4.61;;
62457;SDS011;48509;52.122;5.250;2024-01-10T01:57:00;7.5;;;5.2;;
62457;SDS011;48509;52.122;5.250;2024-01-10T02:00:13;6.7;;;4.7;;
62457;SDS011;48509;52.122;5.250;2024-01-10T02:01:49;6.4;;;4.91;;
62457;SDS011;48509;52.122;5.250;2024-01-10T02:03:26;7.1;;;4.7;;
62457;SDS011;48509;52.122;5.250;2024-01-10T02:06:39;5.7;;;4.3;;
62457;SDS011;48509;52.122;5.250;2024-01-10T02:08:15;8.1;;;5.11;;
62457;SDS011;48509;52.122;5.250;2024-01-10T02:09:51;6.5;;;5.11;;
62457;SDS011;48509;52.122;5.250;2024-01-10T02:13:04;6.5;;;5.11;;
62457;SDS011;48509;52.122;5.250;2024-01-10T02:14:40;7.4;;;5.2;;
62457;SDS011;48509;52.122;5.250;2024-01-10T02:16:16;7.1;;;5.0;;
62457;SDS011;48509;52.122;5.250;2024-01-10T02:19:28;8.4;;;5.11;;
62457;SDS011;48509;52.122;5.250;2024-01-10T02:21:04;6.0;;;4.8;;
62457;SDS011;48509;52.122;5.250;2024-01-10T02:22:43;8.71;;;5.4;;
62457;SDS011;48509;52.122;5.250;2024-01-10T02:24:20;7.6;;;5.3;;
62457;SDS011;48509;52.122;5.250;2024-01-10T02:27:33;7.7;;;5.2;;
62457;SDS011;48509;52.122;5.250;2024-01-10T02:29:10;8.4;;;5.4;;
62457;SDS011;48509;52.122;5.250;2024-01-10T02:30:47;8.5;;;5.11;;
62457;SDS011;48509;52.122;5.250;2024-01-10T02:34:02;8.2;;;4.91;;
62457;SDS011;48509;52.122;5.250;2024-01-10T02:35:38;8.6;;;5.3;;
62457;SDS011;48509;52.122;5.250;2024-01-10T02:37:14;8.4;;;5.3;;
62457;SDS011;48509;52.122;5.250;2024-01-10T02:38:50;7.7;;;5.11;;
62457;SDS011;48509;52.122;5.250;2024-01-10T02:42:02;8.0;;;5.4;;
62457;SDS011;48509;52.122;5.250;2024-01-10T02:43:38;7.9;;;5.5;;
62457;SDS011;48509;52.122;5.250;2024-01-10T02:45:14;6.9;;;5.2;;
62457;SDS011;48509;52.122;5.250;2024-01-10T02:48:27;6.8;;;5.2;;
62457;SDS011;48509;52.122;5.250;2024-01-10T02:50:03;7.8;;;5.5;;
62457;SDS011;48509;52.122;5.250;2024-01-10T02:51:40;10.7;;;5.4;;
62457;SDS011;48509;52.122;5.250;2024-01-10T02:54:52;7.3;;;5.11;;
62457;SDS011;48509;52.122;5.250;2024-01-10T02:56:28;8.6;;;5.5;;
62457;SDS011;48509;52.122;5.250;2024-01-10T02:58:04;11.3;;;5.4;;
62457;SDS011;48509;52.122;5.250;2024-01-10T03:01:16;10.5;;;5.7;;
62457;SDS011;48509;52.122;5.250;2024-01-10T03:02:52;8.0;;;5.3;;
62457;SDS011;48509;52.122;5.250;2024-01-10T03:04:28;8.0;;;5.3;;
62457;SDS011;48509;52.122;5.250;2024-01-10T03:06:05;6.3;;;5.3;;
62457;SDS011;48509;52.122;5.250;2024-01-10T03:09:17;7.1;;;5.5;;
62457;SDS011;48509;52.122;5.250;2024-01-10T03:10:53;7.2;;;5.0;;
62457;SDS011;48509;52.122;5.250;2024-01-10T03:12:29;8.0;;;5.5;;
62457;SDS011;48509;52.122;5.250;2024-01-10T03:15:46;7.2;;;5.5;;
62457;SDS011;48509;52.122;5.250;2024-01-10T03:17:22;10.0;;;5.6;;
62457;SDS011;48509;52.122;5.250;2024-01-10T03:18:58;8.4;;;5.7;;
62457;SDS011;48509;52.122;5.250;2024-01-10T03:22:12;7.0;;;5.2;;
62457;SDS011;48509;52.122;5.250;2024-01-10T03:23:48;8.6;;;5.9;;
62457;SDS011;48509;52.122;5.250;2024-01-10T03:25:24;8.0;;;5.6;;
62457;SDS011;48509;52.122;5.250;2024-01-10T03:27:00;7.8;;;5.8;;
62457;SDS011;48509;52.122;5.250;2024-01-10T03:30:12;8.5;;;5.7;;
62457;SDS011;48509;52.122;5.250;2024-01-10T03:31:48;9.5;;;5.7;;
62457;SDS011;48509;52.122;5.250;2024-01-10T03:33:24;7.2;;;5.5;;
62457;SDS011;48509;52.122;5.250;2024-01-10T03:36:36;7.7;;;5.8;;
62457;SDS011;48509;52.122;5.250;2024-01-10T03:38:12;7.4;;;5.7;;
62457;SDS011;48509;52.122;5.250;2024-01-10T03:39:48;7.7;;;6.0;;
62457;SDS011;48509;52.122;5.250;2024-01-10T03:43:01;9.5;;;6.2;;
62457;SDS011;48509;52.122;5.250;2024-01-10T03:44:37;8.0;;;5.8;;
62457;SDS011;48509;52.122;5.250;2024-01-10T03:46:13;7.0;;;5.6;;
62457;SDS011;48509;52.122;5.250;2024-01-10T03:47:51;7.0;;;5.6;;
62457;SDS011;48509;52.122;5.250;2024-01-10T03:51:03;7.5;;;5.7;;
62457;SDS011;48509;52.122;5.250;2024-01-10T03:52:39;7.8;;;5.2;;
62457;SDS011;48509;52.122;5.250;2024-01-10T03:54:15;8.2;;;5.2;;
62457;SDS011;48509;52.122;5.250;2024-01-10T03:57:27;7.5;;;5.7;;
62457;SDS011;48509;52.122;5.250;2024-01-10T03:59:09;8.5;;;5.7;;
62457;SDS011;48509;52.122;5.250;2024-01-10T04:00:45;8.6;;;5.6;;
62457;SDS011;48509;52.122;5.250;2024-01-10T04:03:57;11.0;;;5.4;;
62457;SDS011;48509;52.122;5.250;2024-01-10T04:05:33;6.9;;;5.4;;
62457;SDS011;48509;52.122;5.250;2024-01-10T04:07:09;13.5;;;5.7;;
62457;SDS011;48509;52.122;5.250;2024-01-10T04:10:21;8.6;;;5.5;;
62457;SDS011;48509;52.122;5.250;2024-01-10T04:11:57;7.9;;;5.6;;
62457;SDS011;48509;52.122;5.250;2024-01-10T04:13:33;7.9;;;5.5;;
62457;SDS011;48509;52.122;5.250;2024-01-10T04:15:10;6.5;;;5.5;;
62457;SDS011;48509;52.122;5.250;2024-01-10T04:18:23;7.3;;;5.5;;
62457;SDS011;48509;52.122;5.250;2024-01-10T04:19:59;9.4;;;6.0;;
62457;SDS011;48509;52.122;5.250;2024-01-10T04:21:35;9.0;;;5.8;;
62457;SDS011;48509;52.122;5.250;2024-01-10T04:24:47;8.2;;;5.5;;
62457;SDS011;48509;52.122;5.250;2024-01-10T04:26:23;6.1;;;5.2;;
62457;SDS011;48509;52.122;5.250;2024-01-10T04:27:59;7.3;;;5.7;;
62457;SDS011;48509;52.122;5.250;2024-01-10T04:31:12;9.81;;;6.1;;
62457;SDS011;48509;52.122;5.250;2024-01-10T04:32:49;7.9;;;6.0;;
62457;SDS011;48509;52.122;5.250;2024-01-10T04:34:25;9.1;;;5.9;;
62457;SDS011;48509;52.122;5.250;2024-01-10T04:36:01;10.6;;;6.1;;
62457;SDS011;48509;52.122;5.250;2024-01-10T04:39:13;9.5;;;5.9;;
62457;SDS011;48509;52.122;5.250;2024-01-10T04:40:49;8.81;;;6.0;;
62457;SDS011;48509;52.122;5.250;2024-01-10T04:42:25;8.31;;;6.3;;
62457;SDS011;48509;52.122;5.250;2024-01-10T04:45:37;7.7;;;5.7;;
62457;SDS011;48509;52.122;5.250;2024-01-10T04:47:13;8.1;;;6.0;;
62457;SDS011;48509;52.122;5.250;2024-01-10T04:48:49;8.2;;;5.9;;
62457;SDS011;48509;52.122;5.250;2024-01-10T04:52:01;9.31;;;6.2;;
62457;SDS011;48509;52.122;5.250;2024-01-10T04:53:37;9.71;;;5.8;;
62457;SDS011;48509;52.122;5.250;2024-01-10T04:55:13;10.1;;;6.5;;
62457;SDS011;48509;52.122;5.250;2024-01-10T04:58:25;7.4;;;5.5;;
62457;SDS011;48509;52.122;5.250;2024-01-10T05:00:01;8.9;;;6.1;;
62457;SDS011;48509;52.122;5.250;2024-01-10T05:01:37;7.9;;;5.8;;
62457;SDS011;48509;52.122;5.250;2024-01-10T05:03:13;8.31;;;6.0;;
62457;SDS011;48509;52.122;5.250;2024-01-10T05:06:25;7.2;;;5.5;;
62457;SDS011;48509;52.122;5.250;2024-01-10T05:08:02;8.1;;;6.1;;
62457;SDS011;48509;52.122;5.250;2024-01-10T05:09:38;9.9;;;6.2;;
62457;SDS011;48509;52.122;5.250;2024-01-10T05:12:51;10.8;;;6.3;;
62457;SDS011;48509;52.122;5.250;2024-01-10T05:14:27;8.9;;;6.2;;
62457;SDS011;48509;52.122;5.250;2024-01-10T05:16:03;7.8;;;5.9;;
62457;SDS011;48509;52.122;5.250;2024-01-10T05:19:16;12.5;;;6.0;;
62457;SDS011;48509;52.122;5.250;2024-01-10T05:20:52;10.21;;;6.4;;
62457;SDS011;48509;52.122;5.250;2024-01-10T05:22:28;8.9;;;6.7;;
62457;SDS011;48509;52.122;5.250;2024-01-10T05:24:05;9.4;;;6.4;;
62457;SDS011;48509;52.122;5.250;2024-01-10T05:27:17;10.1;;;6.1;;
62457;SDS011;48509;52.122;5.250;2024-01-10T05:28:53;9.6;;;6.2;;
62457;SDS011;48509;52.122;5.250;2024-01-10T05:30:29;7.7;;;5.7;;
62457;SDS011;48509;52.122;5.250;2024-01-10T05:33:41;7.4;;;5.9;;
62457;SDS011;48509;52.122;5.250;2024-01-10T05:35:17;6.0;;;5.2;;
62457;SDS011;48509;52.122;5.250;2024-01-10T05:36:53;6.0;;;5.2;;
62457;SDS011;48509;52.122;5.250;2024-01-10T05:40:06;8.71;;;6.1;;
62457;SDS011;48509;52.122;5.250;2024-01-10T05:41:43;8.31;;;6.2;;
62457;SDS011;48509;52.122;5.250;2024-01-10T05:43:19;9.5;;;6.4;;
62457;SDS011;48509;52.122;5.250;2024-01-10T05:46:31;8.5;;;5.9;;
62457;SDS011;48509;52.122;5.250;2024-01-10T05:48:07;10.3;;;6.5;;
62457;SDS011;48509;52.122;5.250;2024-01-10T05:49:43;9.5;;;6.5;;
62457;SDS011;48509;52.122;5.250;2024-01-10T05:51:19;8.6;;;6.3;;
62457;SDS011;48509;52.122;5.250;2024-01-10T05:54:31;10.8;;;6.4;;
62457;SDS011;48509;52.122;5.250;2024-01-10T05:56:08;8.0;;;6.2;;
62457;SDS011;48509;52.122;5.250;2024-01-10T05:57:47;11.8;;;7.3;;
62457;SDS011;48509;52.122;5.250;2024-01-10T06:00:59;8.0;;;6.2;;
62457;SDS011;48509;52.122;5.250;2024-01-10T06:02:35;9.5;;;6.5;;
62457;SDS011;48509;52.122;5.250;2024-01-10T06:04:11;9.9;;;6.6;;
62457;SDS011;48509;52.122;5.250;2024-01-10T06:07:23;10.7;;;6.5;;
62457;SDS011;48509;52.122;5.250;2024-01-10T06:08:59;10.9;;;7.0;;
62457;SDS011;48509;52.122;5.250;2024-01-10T06:10:35;9.5;;;6.8;;
62457;SDS011;48509;52.122;5.250;2024-01-10T06:12:12;9.0;;;6.6;;
62457;SDS011;48509;52.122;5.250;2024-01-10T06:15:24;11.7;;;7.1;;
62457;SDS011;48509;52.122;5.250;2024-01-10T06:17:00;8.31;;;6.6;;
62457;SDS011;48509;52.122;5.250;2024-01-10T06:18:36;12.7;;;7.5;;
62457;SDS011;48509;52.122;5.250;2024-01-10T06:21:48;13.4;;;7.7;;
62457;SDS011;48509;52.122;5.250;2024-01-10T06:23:24;11.0;;;7.5;;
62457;SDS011;48509;52.122;5.250;2024-01-10T06:25:00;9.6;;;6.8;;
62457;SDS011;48509;52.122;5.250;2024-01-10T06:28:12;10.7;;;7.5;;
62457;SDS011;48509;52.122;5.250;2024-01-10T06:29:48;11.3;;;7.5;;
62457;SDS011;48509;52.122;5.250;2024-01-10T06:31:24;11.5;;;7.1;;
62457;SDS011;48509;52.122;5.250;2024-01-10T06:34:36;13.9;;;7.1;;
62457;SDS011;48509;52.122;5.250;2024-01-10T06:36:12;9.9;;;7.7;;
62457;SDS011;48509;52.122;5.250;2024-01-10T06:37:48;12.0;;;8.0;;
62457;SDS011;48509;52.122;5.250;2024-01-10T06:39:24;10.9;;;7.4;;
62457;SDS011;48509;52.122;5.250;2024-01-10T06:42:36;11.3;;;7.4;;
62457;SDS011;48509;52.122;5.250;2024-01-10T06:44:12;13.9;;;7.4;;
62457;SDS011;48509;52.122;5.250;2024-01-10T06:45:48;10.21;;;7.0;;
62457;SDS011;48509;52.122;5.250;2024-01-10T06:49:01;10.9;;;7.4;;
62457;SDS011;48509;52.122;5.250;2024-01-10T06:50:37;11.3;;;6.9;;
62457;SDS011;48509;52.122;5.250;2024-01-10T06:52:13;10.21;;;7.8;;
62457;SDS011;48509;52.122;5.250;2024-01-10T06:55:25;10.1;;;7.5;;
62457;SDS011;48509;52.122;5.250;2024-01-10T06:57:02;10.6;;;7.0;;
62457;SDS011;48509;52.122;5.250;2024-01-10T06:58:38;27.6;;;18.3;;
62457;SDS011;48509;52.122;5.250;2024-01-10T07:01:52;11.7;;;8.2;;
62457;SDS011;48509;52.122;5.250;2024-01-10T07:03:28;11.7;;;7.8;;
62457;SDS011;48509;52.122;5.250;2024-01-10T07:05:09;9.6;;;6.9;;
62457;SDS011;48509;52.122;5.250;2024-01-10T07:06:45;11.3;;;7.3;;
62457;SDS011;48509;52.122;5.250;2024-01-10T07:09:57;10.0;;;7.2;;
62457;SDS011;48509;52.122;5.250;2024-01-10T07:11:33;13.9;;;8.0;;
62457;SDS011;48509;52.122;5.250;2024-01-10T07:13:09;9.1;;;6.9;;
62457;SDS011;48509;52.122;5.250;2024-01-10T07:16:21;9.9;;;7.3;;
62457;SDS011;48509;52.122;5.250;2024-01-10T07:17:57;11.5;;;8.2;;
62457;SDS011;48509;52.122;5.250;2024-01-10T07:19:33;13.3;;;7.9;;
62457;SDS011;48509;52.122;5.250;2024-01-10T07:22:46;11.4;;;7.7;;
62457;SDS011;48509;52.122;5.250;2024-01-10T07:24:22;8.81;;;7.0;;
62457;SDS011;48509;52.122;5.250;2024-01-10T07:25:58;11.6;;;7.4;;
62457;SDS011;48509;52.122;5.250;2024-01-10T07:27:37;10.8;;;7.3;;
62457;SDS011;48509;52.122;5.250;2024-01-10T07:30:49;9.9;;;7.3;;
62457;SDS011;48509;52.122;5.250;2024-01-10T07:32:25;13.3;;;8.0;;
62457;SDS011;48509;52.122;5.250;2024-01-10T07:34:01;10.8;;;7.4;;
62457;SDS011;48509;52.122;5.250;2024-01-10T07:37:13;15.4;;;8.2;;
62457;SDS011;48509;52.122;5.250;2024-01-10T07:38:50;13.5;;;7.8;;
62457;SDS011;48509;52.122;5.250;2024-01-10T07:40:26;10.1;;;7.6;;
62457;SDS011;48509;52.122;5.250;2024-01-10T07:43:39;12.4;;;7.1;;
62457;SDS011;48509;52.122;5.250;2024-01-10T07:45:15;9.31;;;7.6;;
62457;SDS011;48509;52.122;5.250;2024-01-10T07:46:51;13.1;;;7.9;;
62457;SDS011;48509;52.122;5.250;2024-01-10T07:48:27;12.2;;;7.7;;
62457;SDS011;48509;52.122;5.250;2024-01-10T07:51:40;15.8;;;8.4;;
62457;SDS011;48509;52.122;5.250;2024-01-10T07:53:16;13.2;;;8.31;;
62457;SDS011;48509;52.122;5.250;2024-01-10T07:54:53;12.2;;;7.8;;
62457;SDS011;48509;52.122;5.250;2024-01-10T07:58:06;13.7;;;8.81;;
62457;SDS011;48509;52.122;5.250;2024-01-10T07:59:42;11.9;;;8.2;;
62457;SDS011;48509;52.122;5.250;2024-01-10T08:01:18;11.0;;;7.9;;
62457;SDS011;48509;52.122;5.250;2024-01-10T08:04:30;11.6;;;8.0;;
62457;SDS011;48509;52.122;5.250;2024-01-10T08:06:06;11.9;;;8.9;;
62457;SDS011;48509;52.122;5.250;2024-01-10T08:07:42;16.61;;;9.81;;
62457;SDS011;48509;52.122;5.250;2024-01-10T08:10:55;12.9;;;8.0;;
62457;SDS011;48509;52.122;5.250;2024-01-10T08:12:35;11.2;;;7.6;;
62457;SDS011;48509;52.122;5.250;2024-01-10T08:14:11;12.4;;;8.0;;
62457;SDS011;48509;52.122;5.250;2024-01-10T08:15:47;17.5;;;8.0;;
62457;SDS011;48509;52.122;5.250;2024-01-10T08:18:59;9.21;;;8.0;;
62457;SDS011;48509;52.122;5.250;2024-01-10T08:20:35;12.8;;;8.2;;
62457;SDS011;48509;52.122;5.250;2024-01-10T08:22:11;15.4;;;8.1;;
62457;SDS011;48509;52.122;5.250;2024-01-10T08:25:23;10.21;;;7.0;;
62457;SDS011;48509;52.122;5.250;2024-01-10T08:26:59;11.0;;;7.8;;
62457;SDS011;48509;52.122;5.250;2024-01-10T08:28:35;12.5;;;8.0;;
62457;SDS011;48509;52.122;5.250;2024-01-10T08:31:48;11.9;;;7.5;;
62457;SDS011;48509;52.122;5.250;2024-01-10T08:33:24;12.0;;;8.0;;
62457;SDS011;48509;52.122;5.250;2024-01-10T08:35:00;14.1;;;7.1;;
62457;SDS011;48509;52.122;5.250;2024-01-10T08:36:36;13.8;;;7.5;;
62457;SDS011;48509;52.122;5.250;2024-01-10T08:39:48;13.4;;;7.2;;
62457;SDS011;48509;52.122;5.250;2024-01-10T08:41:24;11.3;;;7.0;;
62457;SDS011;48509;52.122;5.250;2024-01-10T08:43:00;13.2;;;7.2;;
62457;SDS011;48509;52.122;5.250;2024-01-10T08:46:13;9.1;;;6.9;;
62457;SDS011;48509;52.122;5.250;2024-01-10T08:47:49;8.81;;;7.3;;
62457;SDS011;48509;52.122;5.250;2024-01-10T08:49:25;11.5;;;6.9;;
62457;SDS011;48509;52.122;5.250;2024-01-10T08:52:37;10.5;;;7.4;;
62457;SDS011;48509;52.122;5.250;2024-01-10T08:54:13;9.81;;;6.8;;
62457;SDS011;48509;52.122;5.250;2024-01-10T08:55:49;9.6;;;6.6;;
62457;SDS011;48509;52.122;5.250;2024-01-10T08:59:01;14.7;;;7.2;;
62457;SDS011;48509;52.122;5.250;2024-01-10T09:00:37;8.1;;;6.8;;
62457;SDS011;48509;52.122;5.250;2024-01-10T09:02:13;12.1;;;7.6;;
62457;SDS011;48509;52.122;5.250;2024-01-10T09:03:49;14.8;;;7.6;;
62457;SDS011;48509;52.122;5.250;2024-01-10T09:07:03;10.21;;;7.0;;
62457;SDS011;48509;52.122;5.250;2024-01-10T09:08:39;12.2;;;7.6;;
62457;SDS011;48509;52.122;5.250;2024-01-10T09:10:15;11.5;;;7.7;;
62457;SDS011;48509;52.122;5.250;2024-01-10T09:13:27;13.6;;;8.0;;
62457;SDS011;48509;52.122;5.250;2024-01-10T09:15:03;9.31;;;7.3;;
62457;SDS011;48509;52.122;5.250;2024-01-10T09:16:40;11.7;;;7.7;;
62457;SDS011;48509;52.122;5.250;2024-01-10T09:19:52;9.81;;;7.5;;
62457;SDS011;48509;52.122;5.250;2024-01-10T09:21:28;11.8;;;7.6;;
62457;SDS011;48509;52.122;5.250;2024-01-10T09:23:05;13.2;;;8.1;;
62457;SDS011;48509;52.122;5.250;2024-01-10T09:24:41;12.5;;;7.6;;
62457;SDS011;48509;52.122;5.250;2024-01-10T09:27:53;14.0;;;7.7;;
62457;SDS011;48509;52.122;5.250;2024-01-10T09:29:30;12.0;;;7.8;;
62457;SDS011;48509;52.122;5.250;2024-01-10T09:31:06;11.4;;;8.0;;
62457;SDS011;48509;52.122;5.250;2024-01-10T09:34:18;11.4;;;7.4;;
62457;SDS011;48509;52.122;5.250;2024-01-10T09:35:54;14.1;;;7.6;;
62457;SDS011;48509;52.122;5.250;2024-01-10T09:37:30;32.21;;;16.4;;
62457;SDS011;48509;52.122;5.250;2024-01-10T09:40:42;14.5;;;8.81;;
62457;SDS011;48509;52.122;5.250;2024-01-10T09:42:19;15.7;;;8.5;;
62457;SDS011;48509;52.122;5.250;2024-01-10T09:43:55;12.8;;;8.5;;
62457;SDS011;48509;52.122;5.250;2024-01-10T09:47:11;11.6;;;8.5;;
62457;SDS011;48509;52.122;5.250;2024-01-10T09:48:50;13.1;;;7.9;;
62457;SDS011;48509;52.122;5.250;2024-01-10T09:50:26;12.5;;;8.31;;
62457;SDS011;48509;52.122;5.250;2024-01-10T09:52:03;14.8;;;8.2;;
62457;SDS011;48509;52.122;5.250;2024-01-10T09:55:24;12.0;;;8.4;;
62457;SDS011;48509;52.122;5.250;2024-01-10T09:57:06;11.4;;;7.9;;
62457;SDS011;48509;52.122;5.250;2024-01-10T09:58:44;10.6;;;7.5;;
62457;SDS011;48509;52.122;5.250;2024-01-10T10:00:24;13.2;;;7.9;;
62457;SDS011;48509;52.122;5.250;2024-01-10T10:03:39;11.5;;;7.6;;
62457;SDS011;48509;52.122;5.250;2024-01-10T10:05:21;12.5;;;7.7;;
62457;SDS011;48509;52.122;5.250;2024-01-10T10:07:01;13.3;;;8.0;;
62457;SDS011;48509;52.122;5.250;2024-01-10T10:08:37;14.4;;;7.9;;
62457;SDS011;48509;52.122;5.250;2024-01-10T10:11:52;12.4;;;7.4;;
62457;SDS011;48509;52.122;5.250;2024-01-10T10:13:29;12.4;;;7.8;;
62457;SDS011;48509;52.122;5.250;2024-01-10T10:15:08;12.0;;;7.7;;
62457;SDS011;48509;52.122;5.250;2024-01-10T10:18:23;13.5;;;8.31;;
62457;SDS011;48509;52.122;5.250;2024-01-10T10:20:01;12.0;;;8.0;;
62457;SDS011;48509;52.122;5.250;2024-01-10T10:21:39;13.5;;;7.8;;
62457;SDS011;48509;52.122;5.250;2024-01-10T10:23:15;12.3;;;8.2;;
62457;SDS011;48509;52.122;5.250;2024-01-10T10:26:31;12.1;;;7.6;;
62457;SDS011;48509;52.122;5.250;2024-01-10T10:28:08;14.0;;;8.71;;
62457;SDS011;48509;52.122;5.250;2024-01-10T10:29:44;16.9;;;10.8;;
62457;SDS011;48509;52.122;5.250;2024-01-10T10:32:56;11.9;;;7.6;;
62457;SDS011;48509;52.122;5.250;2024-01-10T10:34:33;11.4;;;7.2;;
62457;SDS011;48509;52.122;5.250;2024-01-10T10:36:09;12.9;;;8.1;;
62457;SDS011;48509;52.122;5.250;2024-01-10T10:39:25;11.8;;;7.8;;
62457;SDS011;48509;52.122;5.250;2024-01-10T10:41:01;11.3;;;8.2;;
62457;SDS011;48509;52.122;5.250;2024-01-10T10:42:43;11.9;;;7.6;;
62457;SDS011;48509;52.122;5.250;2024-01-10T10:44:23;13.4;;;7.8;;
62457;SDS011;48509;52.122;5.250;2024-01-10T10:47:36;13.0;;;7.8;;
62457;SDS011;48509;52.122;5.250;2024-01-10T10:49:16;11.2;;;7.7;;
62457;SDS011;48509;52.122;5.250;2024-01-10T10:51:03;14.0;;;8.1;;
62457;SDS011;48509;52.122;5.250;2024-01-10T10:52:41;11.7;;;7.2;;
62457;SDS011;48509;52.122;5.250;2024-01-10T10:55:58;11.6;;;7.4;;
62457;SDS011;48509;52.122;5.250;2024-01-10T10:57:36;11.1;;;7.6;;
62457;SDS011;48509;52.122;5.250;2024-01-10T10:59:14;11.6;;;7.8;;
62457;SDS011;48509;52.122;5.250;2024-01-10T11:00:54;11.6;;;7.8;;
62457;SDS011;48509;52.122;5.250;2024-01-10T11:04:08;14.8;;;7.9;;
62457;SDS011;48509;52.122;5.250;2024-01-10T11:05:45;10.3;;;7.4;;
62457;SDS011;48509;52.122;5.250;2024-01-10T11:07:22;15.4;;;7.8;;
62457;SDS011;48509;52.122;5.250;2024-01-10T11:10:40;14.5;;;7.8;;
62457;SDS011;48509;52.122;5.250;2024-01-10T11:12:22;10.0;;;7.9;;
62457;SDS011;48509;52.122;5.250;2024-01-10T11:14:14;9.5;;;7.4;;
62457;SDS011;48509;52.122;5.250;2024-01-10T11:16:08;13.2;;;8.0;;
62457;SDS011;48509;52.122;5.250;2024-01-10T11:18:12;12.5;;;7.8;;
62457;SDS011;48509;52.122;5.250;2024-01-10T11:20:18;12.2;;;7.6;;
62457;SDS011;48509;52.122;5.250;2024-01-10T11:22:10;11.5;;;7.5;;
62457;SDS011;48509;52.122;5.250;2024-01-10T11:24:00;14.1;;;7.9;;
62457;SDS011;48509;52.122;5.250;2024-01-10T11:27:15;14.1;;;7.9;;
62457;SDS011;48509;52.122;5.250;2024-01-10T11:28:52;15.0;;;7.9;;
62457;SDS011;48509;52.122;5.250;2024-01-10T11:30:32;13.9;;;7.7;;
62457;SDS011;48509;52.122;5.250;2024-01-10T11:33:50;12.3;;;7.7;;
62457;SDS011;48509;52.122;5.250;2024-01-10T11:35:26;12.8;;;8.2;;
62457;SDS011;48509;52.122;5.250;2024-01-10T11:37:09;16.11;;;8.6;;
62457;SDS011;48509;52.122;5.250;2024-01-10T11:38:48;13.0;;;7.3;;
62457;SDS011;48509;52.122;5.250;2024-01-10T11:42:23;11.7;;;8.1;;
62457;SDS011;48509;52.122;5.250;2024-01-10T11:44:46;13.7;;;7.9;;
62457;SDS011;48509;52.122;5.250;2024-01-10T11:46:23;9.5;;;7.3;;
62457;SDS011;48509;52.122;5.250;2024-01-10T11:48:00;11.9;;;7.4;;
62457;SDS011;48509;52.122;5.250;2024-01-10T11:49:36;14.9;;;7.4;;
62457;SDS011;48509;52.122;5.250;2024-01-10T11:51:12;11.7;;;7.8;;
62457;SDS011;48509;52.122;5.250;2024-01-10T11:54:37;13.5;;;8.0;;
62457;SDS011;48509;52.122;5.250;2024-01-10T11:56:21;11.8;;;7.9;;
62457;SDS011;48509;52.122;5.250;2024-01-10T11:58:03;10.5;;;7.2;;
62457;SDS011;48509;52.122;5.250;2024-01-10T11:59:45;11.5;;;8.0;;
62457;SDS011;48509;52.122;5.250;2024-01-10T12:02:59;14.2;;;8.2;;
62457;SDS011;48509;52.122;5.250;2024-01-10T12:04:35;11.2;;;7.4;;
62457;SDS011;48509;52.122;5.250;2024-01-10T12:06:11;12.0;;;7.6;;
62457;SDS011;48509;52.122;5.250;2024-01-10T12:09:26;13.2;;;8.1;;
62457;SDS011;48509;52.122;5.250;2024-01-10T12:11:02;12.4;;;8.0;;
62457;SDS011;48509;52.122;5.250;2024-01-10T12:12:39;13.1;;;8.4;;
62457;SDS011;48509;52.122;5.250;2024-01-10T12:14:15;13.5;;;8.6;;
62457;SDS011;48509;52.122;5.250;2024-01-10T12:17:28;12.4;;;8.1;;
62457;SDS011;48509;52.122;5.250;2024-01-10T12:19:04;11.5;;;8.2;;
62457;SDS011;48509;52.122;5.250;2024-01-10T12:20:40;13.7;;;8.2;;
62457;SDS011;48509;52.122;5.250;2024-01-10T12:23:53;14.2;;;8.1;;
62457;SDS011;48509;52.122;5.250;2024-01-10T12:25:29;10.3;;;7.6;;
62457;SDS011;48509;52.122;5.250;2024-01-10T12:27:05;15.7;;;8.0;;
62457;SDS011;48509;52.122;5.250;2024-01-10T12:30:30;12.1;;;7.6;;
62457;SDS011;48509;52.122;5.250;2024-01-10T12:32:07;13.0;;;7.8;;
62457;SDS011;48509;52.122;5.250;2024-01-10T12:33:43;15.7;;;7.8;;
62457;SDS011;48509;52.122;5.250;2024-01-10T12:35:19;13.8;;;8.0;;
62457;SDS011;48509;52.122;5.250;2024-01-10T12:38:32;10.3;;;7.2;;
62457;SDS011;48509;52.122;5.250;2024-01-10T12:40:09;12.7;;;8.0;;
62457;SDS011;48509;52.122;5.250;2024-01-10T12:41:46;10.5;;;7.8;;
62457;SDS011;48509;52.122;5.250;2024-01-10T12:44:59;10.21;;;7.6;;
62457;SDS011;48509;52.122;5.250;2024-01-10T12:46:35;13.5;;;7.7;;
62457;SDS011;48509;52.122;5.250;2024-01-10T12:48:13;11.6;;;7.7;;
62457;SDS011;48509;52.122;5.250;2024-01-10T12:49:49;10.4;;;7.6;;